sensor_id;sensor_type;location;lat;lon;timestamp;pressure;altitude;pressure_sealevel;temperature;humidity
75933;BME280;64803;52.356;5.310;2023-03-16T00:00:46;102106.88;;;4.26;84.02
75933;BME280;64803;52.356;5.310;2023-03-16T00:03:13;102101.34;;;4.29;83.79
75933;BME280;64803;52.356;5.310;2023-03-16T00:05:45;102096.47;;;4.35;83.90
75933;BME280;64803;52.356;5.310;2023-03-16T00:08:11;102094.34;;;4.40;83.54
75933;BME280;64803;52.356;5.310;2023-03-16T00:10:37;102092.19;;;4.45;83.22
75933;BME280;64803;52.356;5.310;2023-03-16T00:13:03;102085.81;;;4.48;83.26
75933;BME280;64803;52.356;5.310;2023-03-16T00:15:29;102079.41;;;4.50;83.88
75933;BME280;64803;52.356;5.310;2023-03-16T00:17:55;102074.00;;;4.52;83.56
75933;BME280;64803;52.356;5.310;2023-03-16T00:20:21;102060.69;;;4.52;83.63
75933;BME280;64803;52.356;5.310;2023-03-16T00:22:47;102063.03;;;4.56;83.53
75933;BME280;64803;52.356;5.310;2023-03-16T00:25:13;102051.44;;;4.57;83.41
75933;BME280;64803;52.356;5.310;2023-03-16T00:27:40;102051.78;;;4.53;83.42
75933;BME280;64803;52.356;5.310;2023-03-16T00:30:06;102041.31;;;4.50;84.53
75933;BME280;64803;52.356;5.310;2023-03-16T00:32:35;102045.59;;;4.52;83.67
75933;BME280;64803;52.356;5.310;2023-03-16T00:35:03;102044.41;;;4.56;83.68
75933;BME280;64803;52.356;5.310;2023-03-16T00:37:30;102053.22;;;4.57;84.16
75933;BME280;64803;52.356;5.310;2023-03-16T00:39:59;102054.09;;;4.57;84.60
75933;BME280;64803;52.356;5.310;2023-03-16T00:42:27;102046.22;;;4.56;84.58
75933;BME280;64803;52.356;5.310;2023-03-16T00:44:55;102050.56;;;4.57;84.93
75933;BME280;64803;52.356;5.310;2023-03-16T00:47:29;102049.81;;;4.55;85.52
75933;BME280;64803;52.356;5.310;2023-03-16T00:49:55;102049.81;;;4.55;85.35
75933;BME280;64803;52.356;5.310;2023-03-16T00:52:22;102045.38;;;4.55;85.32
75933;BME280;64803;52.356;5.310;2023-03-16T00:54:49;102050.56;;;4.57;85.48
75933;BME280;64803;52.356;5.310;2023-03-16T00:57:17;102047.72;;;4.60;85.96
75933;BME280;64803;52.356;5.310;2023-03-16T00:59:44;102028.97;;;4.62;86.16
75933;BME280;64803;52.356;5.310;2023-03-16T01:02:11;102023.31;;;4.66;85.59
75933;BME280;64803;52.356;5.310;2023-03-16T01:04:38;102024.06;;;4.68;85.84
75933;BME280;64803;52.356;5.310;2023-03-16T01:07:07;102018.72;;;4.68;86.05
75933;BME280;64803;52.356;5.310;2023-03-16T01:09:34;102010.00;;;4.66;85.87
75933;BME280;64803;52.356;5.310;2023-03-16T01:12:03;102010.53;;;4.71;85.75
75933;BME280;64803;52.356;5.310;2023-03-16T01:14:32;102009.56;;;4.72;86.28
75933;BME280;64803;52.356;5.310;2023-03-16T01:17:03;102016.59;;;4.73;86.27
75933;BME280;64803;52.356;5.310;2023-03-16T01:19:30;102007.84;;;4.71;86.77
75933;BME280;64803;52.356;5.310;2023-03-16T01:21:59;102008.84;;;4.70;86.57
75933;BME280;64803;52.356;5.310;2023-03-16T01:24:25;102008.72;;;4.72;86.39
75933;BME280;64803;52.356;5.310;2023-03-16T01:26:51;101998.19;;;4.70;87.01
75933;BME280;64803;52.356;5.310;2023-03-16T01:29:17;101986.56;;;4.71;86.96
75933;BME280;64803;52.356;5.310;2023-03-16T01:31:43;101990.84;;;4.74;87.23
75933;BME280;64803;52.356;5.310;2023-03-16T01:34:09;101977.66;;;4.72;87.53
75933;BME280;64803;52.356;5.310;2023-03-16T01:36:42;101977.66;;;4.72;87.79
75933;BME280;64803;52.356;5.310;2023-03-16T01:39:11;101955.31;;;4.62;88.07
75933;BME280;64803;52.356;5.310;2023-03-16T01:41:43;101965.28;;;4.71;87.69
75933;BME280;64803;52.356;5.310;2023-03-16T01:44:12;101964.47;;;4.71;87.77
75933;BME280;64803;52.356;5.310;2023-03-16T01:46:39;101947.75;;;4.69;87.90
75933;BME280;64803;52.356;5.310;2023-03-16T01:49:23;101954.66;;;4.71;88.25
75933;BME280;64803;52.356;5.310;2023-03-16T01:51:59;101960.81;;;4.72;88.19
75933;BME280;64803;52.356;5.310;2023-03-16T01:54:38;101960.94;;;4.70;88.47
75933;BME280;64803;52.356;5.310;2023-03-16T01:57:11;101960.19;;;4.68;88.52
75933;BME280;64803;52.356;5.310;2023-03-16T01:59:47;101960.19;;;4.68;89.08
75933;BME280;64803;52.356;5.310;2023-03-16T02:02:19;101952.22;;;4.68;88.51
75933;BME280;64803;52.356;5.310;2023-03-16T02:05:00;101958.28;;;4.70;89.06
75933;BME280;64803;52.356;5.310;2023-03-16T02:07:31;101951.03;;;4.72;88.89
75933;BME280;64803;52.356;5.310;2023-03-16T02:10:00;101949.31;;;4.71;89.24
75933;BME280;64803;52.356;5.310;2023-03-16T02:12:28;101941.22;;;4.73;89.30
75933;BME280;64803;52.356;5.310;2023-03-16T02:14:56;101932.00;;;4.66;89.91
75933;BME280;64803;52.356;5.310;2023-03-16T02:17:26;101939.91;;;4.67;89.61
75933;BME280;64803;52.356;5.310;2023-03-16T02:22:57;101934.66;;;4.66;90.40
75933;BME280;64803;52.356;5.310;2023-03-16T02:25:30;101931.91;;;4.67;90.46
75933;BME280;64803;52.356;5.310;2023-03-16T02:28:09;101930.19;;;4.66;90.42
75933;BME280;64803;52.356;5.310;2023-03-16T02:30:41;101921.78;;;4.72;90.77
75933;BME280;64803;52.356;5.310;2023-03-16T02:33:07;101926.75;;;4.77;90.68
75933;BME280;64803;52.356;5.310;2023-03-16T02:35:34;101923.97;;;4.78;91.02
75933;BME280;64803;52.356;5.310;2023-03-16T02:38:01;101923.97;;;4.78;91.97
75933;BME280;64803;52.356;5.310;2023-03-16T02:40:35;101920.56;;;4.76;92.91
75933;BME280;64803;52.356;5.310;2023-03-16T02:43:16;101915.25;;;4.76;93.31
75933;BME280;64803;52.356;5.310;2023-03-16T02:45:59;101909.31;;;4.73;93.30
75933;BME280;64803;52.356;5.310;2023-03-16T02:48:29;101913.69;;;4.74;93.54
75933;BME280;64803;52.356;5.310;2023-03-16T02:50:57;101917.19;;;4.74;94.00
75933;BME280;64803;52.356;5.310;2023-03-16T02:53:27;101915.47;;;4.73;94.05
75933;BME280;64803;52.356;5.310;2023-03-16T02:55:55;101910.16;;;4.73;93.95
75933;BME280;64803;52.356;5.310;2023-03-16T02:58:21;101911.13;;;4.72;94.29
75933;BME280;64803;52.356;5.310;2023-03-16T03:00:47;101910.41;;;4.70;94.41
75933;BME280;64803;52.356;5.310;2023-03-16T03:03:15;101908.47;;;4.72;94.58
75933;BME280;64803;52.356;5.310;2023-03-16T03:05:41;101910.50;;;4.69;95.11
75933;BME280;64803;52.356;5.310;2023-03-16T03:08:07;101910.41;;;4.70;95.18
75933;BME280;64803;52.356;5.310;2023-03-16T03:10:33;101907.00;;;4.68;95.56
75933;BME280;64803;52.356;5.310;2023-03-16T03:12:59;101904.22;;;4.70;95.45
75933;BME280;64803;52.356;5.310;2023-03-16T03:15:26;101905.41;;;4.66;96.02
75933;BME280;64803;52.356;5.310;2023-03-16T03:17:59;101894.06;;;4.64;96.18
75933;BME280;64803;52.356;5.310;2023-03-16T03:20:28;101909.16;;;4.63;96.04
75933;BME280;64803;52.356;5.310;2023-03-16T03:22:54;101889.78;;;4.61;96.63
75933;BME280;64803;52.356;5.310;2023-03-16T03:25:21;101882.78;;;4.60;96.92
75933;BME280;64803;52.356;5.310;2023-03-16T03:27:48;101878.88;;;4.53;98.00
75933;BME280;64803;52.356;5.310;2023-03-16T03:30:19;101878.66;;;4.56;98.61
75933;BME280;64803;52.356;5.310;2023-03-16T03:32:47;101880.44;;;4.55;98.29
75933;BME280;64803;52.356;5.310;2023-03-16T03:35:14;101885.78;;;4.55;98.38
75933;BME280;64803;52.356;5.310;2023-03-16T03:37:41;101882.50;;;4.52;98.82
75933;BME280;64803;52.356;5.310;2023-03-16T03:40:11;101888.78;;;4.51;99.52
75933;BME280;64803;52.356;5.310;2023-03-16T03:42:40;101888.06;;;4.49;100.00
75933;BME280;64803;52.356;5.310;2023-03-16T03:45:07;101887.06;;;4.50;100.00
75933;BME280;64803;52.356;5.310;2023-03-16T03:47:35;101878.16;;;4.51;100.00
75933;BME280;64803;52.356;5.310;2023-03-16T03:50:04;101871.13;;;4.50;100.00
75933;BME280;64803;52.356;5.310;2023-03-16T03:52:33;101867.63;;;4.49;100.00
75933;BME280;64803;52.356;5.310;2023-03-16T03:54:59;101867.63;;;4.49;100.00
75933;BME280;64803;52.356;5.310;2023-03-16T03:57:25;101863.13;;;4.50;100.00
75933;BME280;64803;52.356;5.310;2023-03-16T03:59:51;101869.66;;;4.46;100.00
75933;BME280;64803;52.356;5.310;2023-03-16T04:02:23;101859.66;;;4.49;100.00
75933;BME280;64803;52.356;5.310;2023-03-16T04:04:52;101853.72;;;4.46;100.00
75933;BME280;64803;52.356;5.310;2023-03-16T04:07:18;101846.69;;;4.45;100.00
75933;BME280;64803;52.356;5.310;2023-03-16T04:09:45;101845.84;;;4.44;100.00
75933;BME280;64803;52.356;5.310;2023-03-16T04:12:37;101847.66;;;4.44;100.00
75933;BME280;64803;52.356;5.310;2023-03-16T04:15:05;101840.53;;;4.44;100.00
75933;BME280;64803;52.356;5.310;2023-03-16T04:17:38;101835.31;;;4.43;100.00
75933;BME280;64803;52.356;5.310;2023-03-16T04:20:08;101846.91;;;4.42;100.00
75933;BME280;64803;52.356;5.310;2023-03-16T04:22:41;101845.94;;;4.43;100.00
75933;BME280;64803;52.356;5.310;2023-03-16T04:25:09;101846.91;;;4.42;100.00
75933;BME280;64803;52.356;5.310;2023-03-16T04:27:37;101841.84;;;4.39;100.00
75933;BME280;64803;52.356;5.310;2023-03-16T04:30:06;101842.66;;;4.39;100.00
75933;BME280;64803;52.356;5.310;2023-03-16T04:32:37;101832.66;;;4.43;100.00
75933;BME280;64803;52.356;5.310;2023-03-16T04:35:04;101832.66;;;4.43;100.00
75933;BME280;64803;52.356;5.310;2023-03-16T04:37:42;101826.50;;;4.42;100.00
75933;BME280;64803;52.356;5.310;2023-03-16T04:40:09;101821.31;;;4.41;100.00
75933;BME280;64803;52.356;5.310;2023-03-16T04:42:46;101816.00;;;4.41;100.00
75933;BME280;64803;52.356;5.310;2023-03-16T04:45:17;101821.91;;;4.44;100.00
75933;BME280;64803;52.356;5.310;2023-03-16T04:47:43;101821.91;;;4.44;100.00
75933;BME280;64803;52.356;5.310;2023-03-16T04:50:10;101819.25;;;4.44;100.00
75933;BME280;64803;52.356;5.310;2023-03-16T04:52:37;101827.84;;;4.48;100.00
75933;BME280;64803;52.356;5.310;2023-03-16T04:55:04;101826.88;;;4.49;100.00
75933;BME280;64803;52.356;5.310;2023-03-16T04:57:31;101819.66;;;4.51;100.00
75933;BME280;64803;52.356;5.310;2023-03-16T04:59:57;101823.88;;;4.53;100.00
75933;BME280;64803;52.356;5.310;2023-03-16T05:02:34;101820.13;;;4.56;100.00
75933;BME280;64803;52.356;5.310;2023-03-16T05:05:04;101815.56;;;4.58;100.00
75933;BME280;64803;52.356;5.310;2023-03-16T05:07:31;101818.94;;;4.60;100.00
75933;BME280;64803;52.356;5.310;2023-03-16T05:10:00;101820.63;;;4.61;100.00
75933;BME280;64803;52.356;5.310;2023-03-16T05:12:26;101810.97;;;4.60;100.00
75933;BME280;64803;52.356;5.310;2023-03-16T05:14:58;101815.06;;;4.64;100.00
75933;BME280;64803;52.356;5.310;2023-03-16T05:17:34;101813.28;;;4.65;100.00
75933;BME280;64803;52.356;5.310;2023-03-16T05:20:01;101816.78;;;4.65;100.00
75933;BME280;64803;52.356;5.310;2023-03-16T05:22:27;101820.19;;;4.67;100.00
75933;BME280;64803;52.356;5.310;2023-03-16T05:25:11;101813.03;;;4.68;100.00
75933;BME280;64803;52.356;5.310;2023-03-16T05:27:46;101816.53;;;4.68;100.00
75933;BME280;64803;52.356;5.310;2023-03-16T05:30:18;101806.63;;;4.70;100.00
75933;BME280;64803;52.356;5.310;2023-03-16T05:32:45;101809.31;;;4.70;100.00
75933;BME280;64803;52.356;5.310;2023-03-16T05:35:12;101798.66;;;4.70;100.00
75933;BME280;64803;52.356;5.310;2023-03-16T05:37:39;101791.63;;;4.69;100.00
75933;BME280;64803;52.356;5.310;2023-03-16T05:40:11;101783.16;;;4.64;100.00
75933;BME280;64803;52.356;5.310;2023-03-16T05:42:53;101787.16;;;4.70;100.00
75933;BME280;64803;52.356;5.310;2023-03-16T05:45:20;101779.19;;;4.70;100.00
75933;BME280;64803;52.356;5.310;2023-03-16T05:47:57;101775.91;;;4.66;100.00
75933;BME280;64803;52.356;5.310;2023-03-16T05:50:23;101769.38;;;4.59;100.00
75933;BME280;64803;52.356;5.310;2023-03-16T05:52:49;101775.06;;;4.66;100.00
75933;BME280;64803;52.356;5.310;2023-03-16T05:55:20;101780.50;;;4.64;100.00
75933;BME280;64803;52.356;5.310;2023-03-16T05:57:52;101764.03;;;4.59;100.00
75933;BME280;64803;52.356;5.310;2023-03-16T06:00:19;101768.63;;;4.57;100.00
75933;BME280;64803;52.356;5.310;2023-03-16T06:02:52;101768.75;;;4.55;100.00
75933;BME280;64803;52.356;5.310;2023-03-16T06:05:20;101770.56;;;4.55;100.00
75933;BME280;64803;52.356;5.310;2023-03-16T06:07:50;101768.88;;;4.54;100.00
75933;BME280;64803;52.356;5.310;2023-03-16T06:10:18;101763.06;;;4.49;100.00
75933;BME280;64803;52.356;5.310;2023-03-16T06:12:45;101776.84;;;4.54;100.00
75933;BME280;64803;52.356;5.310;2023-03-16T06:15:11;101772.25;;;4.56;100.00
75933;BME280;64803;52.356;5.310;2023-03-16T06:17:38;101767.69;;;4.58;100.00
75933;BME280;64803;52.356;5.310;2023-03-16T06:20:06;101769.38;;;4.59;100.00
75933;BME280;64803;52.356;5.310;2023-03-16T06:22:39;101761.25;;;4.60;100.00
75933;BME280;64803;52.356;5.310;2023-03-16T06:25:07;101763.59;;;4.65;100.00
75933;BME280;64803;52.356;5.310;2023-03-16T06:27:35;101768.78;;;4.67;100.00
75933;BME280;64803;52.356;5.310;2023-03-16T06:30:14;101758.75;;;4.70;100.00
75933;BME280;64803;52.356;5.310;2023-03-16T06:32:41;101759.69;;;4.69;100.00
75933;BME280;64803;52.356;5.310;2023-03-16T06:35:08;101759.50;;;4.72;100.00
75933;BME280;64803;52.356;5.310;2023-03-16T06:37:36;101759.50;;;4.72;100.00
75933;BME280;64803;52.356;5.310;2023-03-16T06:40:14;101755.59;;;4.76;100.00
75933;BME280;64803;52.356;5.310;2023-03-16T06:42:41;101761.66;;;4.78;100.00
75933;BME280;64803;52.356;5.310;2023-03-16T06:45:11;101763.50;;;4.78;100.00
75933;BME280;64803;52.356;5.310;2023-03-16T06:47:38;101744.47;;;4.71;100.00
75933;BME280;64803;52.356;5.310;2023-03-16T06:50:04;101756.22;;;4.80;100.00
75933;BME280;64803;52.356;5.310;2023-03-16T06:52:30;101742.91;;;4.80;100.00
75933;BME280;64803;52.356;5.310;2023-03-16T06:54:57;101748.16;;;4.81;100.00
75933;BME280;64803;52.356;5.310;2023-03-16T06:57:24;101745.09;;;4.86;100.00
75933;BME280;64803;52.356;5.310;2023-03-16T06:59:50;101740.28;;;4.91;100.00
75933;BME280;64803;52.356;5.310;2023-03-16T07:02:16;101742.47;;;4.97;100.00
75933;BME280;64803;52.356;5.310;2023-03-16T07:04:44;101745.38;;;5.05;100.00
75933;BME280;64803;52.356;5.310;2023-03-16T07:07:10;101735.81;;;5.13;100.00
75933;BME280;64803;52.356;5.310;2023-03-16T07:09:37;101731.06;;;5.17;100.00
75933;BME280;64803;52.356;5.310;2023-03-16T07:12:03;101732.53;;;5.21;100.00
75933;BME280;64803;52.356;5.310;2023-03-16T07:14:30;101736.53;;;5.26;100.00
75933;BME280;64803;52.356;5.310;2023-03-16T07:16:57;101729.63;;;5.24;100.00
75933;BME280;64803;52.356;5.310;2023-03-16T07:19:24;101731.91;;;5.28;100.00
75933;BME280;64803;52.356;5.310;2023-03-16T07:21:52;101731.56;;;5.33;100.00
75933;BME280;64803;52.356;5.310;2023-03-16T07:24:19;101728.91;;;5.33;100.00
75933;BME280;64803;52.356;5.310;2023-03-16T07:26:45;101730.44;;;5.35;100.00
75933;BME280;64803;52.356;5.310;2023-03-16T07:29:18;101731.69;;;5.31;100.00
75933;BME280;64803;52.356;5.310;2023-03-16T07:31:45;101732.03;;;5.38;100.00
75933;BME280;64803;52.356;5.310;2023-03-16T07:34:17;101732.88;;;5.38;100.00
75933;BME280;64803;52.356;5.310;2023-03-16T07:36:47;101730.34;;;5.37;100.00
75933;BME280;64803;52.356;5.310;2023-03-16T07:39:14;101734.81;;;5.36;100.00
75933;BME280;64803;52.356;5.310;2023-03-16T07:41:42;101735.78;;;5.35;100.00
75933;BME280;64803;52.356;5.310;2023-03-16T07:44:18;101745.09;;;5.41;100.00
75933;BME280;64803;52.356;5.310;2023-03-16T07:46:47;101743.28;;;5.41;100.00
75933;BME280;64803;52.356;5.310;2023-03-16T07:49:14;101741.59;;;5.40;100.00
75933;BME280;64803;52.356;5.310;2023-03-16T07:51:42;101745.22;;;5.39;100.00
75933;BME280;64803;52.356;5.310;2023-03-16T07:54:08;101738.44;;;5.35;100.00
75933;BME280;64803;52.356;5.310;2023-03-16T07:56:35;101741.59;;;5.40;100.00
75933;BME280;64803;52.356;5.310;2023-03-16T07:59:05;101743.41;;;5.40;100.00
75933;BME280;64803;52.356;5.310;2023-03-16T08:01:31;101741.09;;;5.46;100.00
75933;BME280;64803;52.356;5.310;2023-03-16T08:04:00;101740.63;;;5.52;100.00
75933;BME280;64803;52.356;5.310;2023-03-16T08:06:27;101739.38;;;5.56;100.00
75933;BME280;64803;52.356;5.310;2023-03-16T08:08:53;101731.38;;;5.67;100.00
75933;BME280;64803;52.356;5.310;2023-03-16T08:11:28;101736.22;;;5.73;100.00
75933;BME280;64803;52.356;5.310;2023-03-16T08:13:58;101734.97;;;5.78;100.00
75933;BME280;64803;52.356;5.310;2023-03-16T08:16:34;101730.84;;;5.85;100.00
75933;BME280;64803;52.356;5.310;2023-03-16T08:19:03;101728.66;;;5.90;100.00
75933;BME280;64803;52.356;5.310;2023-03-16T08:21:29;101723.69;;;5.96;100.00
75933;BME280;64803;52.356;5.310;2023-03-16T08:23:55;101720.50;;;6.02;100.00
75933;BME280;64803;52.356;5.310;2023-03-16T08:26:22;101709.69;;;6.04;100.00
75933;BME280;64803;52.356;5.310;2023-03-16T08:28:53;101713.94;;;6.06;100.00
75933;BME280;64803;52.356;5.310;2023-03-16T08:31:20;101709.78;;;6.13;100.00
75933;BME280;64803;52.356;5.310;2023-03-16T08:34:02;101725.19;;;6.10;99.14
75933;BME280;64803;52.356;5.310;2023-03-16T08:36:29;101711.34;;;6.16;100.00
75933;BME280;64803;52.356;5.310;2023-03-16T08:38:57;101710.63;;;6.14;98.70
75933;BME280;64803;52.356;5.310;2023-03-16T08:41:23;101722.72;;;6.18;99.44
75933;BME280;64803;52.356;5.310;2023-03-16T08:43:50;101723.31;;;6.21;97.53
75933;BME280;64803;52.356;5.310;2023-03-16T08:46:17;101727.47;;;6.35;96.78
75933;BME280;64803;52.356;5.310;2023-03-16T08:48:52;101726.34;;;6.48;97.51
75933;BME280;64803;52.356;5.310;2023-03-16T08:51:22;101720.09;;;6.59;96.81
75933;BME280;64803;52.356;5.310;2023-03-16T08:53:48;101721.75;;;6.60;95.84
75933;BME280;64803;52.356;5.310;2023-03-16T08:56:14;101725.59;;;6.67;96.70
75933;BME280;64803;52.356;5.310;2023-03-16T08:58:41;101713.28;;;6.75;95.95
75933;BME280;64803;52.356;5.310;2023-03-16T09:01:14;101716.47;;;6.90;95.42
75933;BME280;64803;52.356;5.310;2023-03-16T09:03:42;101708.31;;;6.92;94.80
75933;BME280;64803;52.356;5.310;2023-03-16T09:06:13;101719.00;;;6.92;94.51
75933;BME280;64803;52.356;5.310;2023-03-16T09:08:40;101710.84;;;6.93;93.73
75933;BME280;64803;52.356;5.310;2023-03-16T09:11:08;101710.06;;;7.02;94.01
75933;BME280;64803;52.356;5.310;2023-03-16T09:13:36;101699.38;;;7.02;93.41
75933;BME280;64803;52.356;5.310;2023-03-16T09:16:07;101702.75;;;7.04;92.03
75933;BME280;64803;52.356;5.310;2023-03-16T09:18:35;101706.13;;;7.06;91.36
75933;BME280;64803;52.356;5.310;2023-03-16T09:21:06;101696.06;;;7.19;91.98
75933;BME280;64803;52.356;5.310;2023-03-16T09:23:33;101697.47;;;7.23;91.46
75933;BME280;64803;52.356;5.310;2023-03-16T09:26:01;101700.59;;;7.28;90.73
75933;BME280;64803;52.356;5.310;2023-03-16T09:28:28;101700.03;;;7.34;91.08
75933;BME280;64803;52.356;5.310;2023-03-16T09:30:56;101696.53;;;7.34;90.83
75933;BME280;64803;52.356;5.310;2023-03-16T09:33:24;101684.56;;;7.28;90.19
75933;BME280;64803;52.356;5.310;2023-03-16T09:35:51;101705.38;;;7.34;89.59
75933;BME280;64803;52.356;5.310;2023-03-16T09:38:20;101700.16;;;7.33;89.63
75933;BME280;64803;52.356;5.310;2023-03-16T09:40:56;101699.31;;;7.32;89.46
75933;BME280;64803;52.356;5.310;2023-03-16T09:43:31;101704.25;;;7.37;89.57
75933;BME280;64803;52.356;5.310;2023-03-16T09:48:32;101686.94;;;7.31;88.33
75933;BME280;64803;52.356;5.310;2023-03-16T09:51:03;101697.94;;;7.38;88.01
75933;BME280;64803;52.356;5.310;2023-03-16T09:53:33;101685.13;;;7.41;87.94
75933;BME280;64803;52.356;5.310;2023-03-16T09:56:11;101687.00;;;7.50;88.07
75933;BME280;64803;52.356;5.310;2023-03-16T09:58:41;101681.25;;;7.64;87.44
75933;BME280;64803;52.356;5.310;2023-03-16T10:01:21;101672.94;;;7.86;88.15
75933;BME280;64803;52.356;5.310;2023-03-16T10:07:15;101676.19;;;8.19;85.56
75933;BME280;64803;52.356;5.310;2023-03-16T10:09:55;101676.50;;;8.35;84.81
75933;BME280;64803;52.356;5.310;2023-03-16T10:12:31;101669.13;;;8.46;84.76
75933;BME280;64803;52.356;5.310;2023-03-16T10:15:12;101671.34;;;8.60;83.67
75933;BME280;64803;52.356;5.310;2023-03-16T10:17:45;101663.88;;;8.54;82.82
75933;BME280;64803;52.356;5.310;2023-03-16T10:20:16;101663.06;;;8.54;79.44
75933;BME280;64803;52.356;5.310;2023-03-16T10:22:44;101666.25;;;8.67;82.66
75933;BME280;64803;52.356;5.310;2023-03-16T10:25:30;101675.59;;;8.63;82.70
75933;BME280;64803;52.356;5.310;2023-03-16T10:28:00;101667.56;;;8.63;82.61
75933;BME280;64803;52.356;5.310;2023-03-16T10:32:54;101652.03;;;9.03;82.02
75933;BME280;64803;52.356;5.310;2023-03-16T10:38:33;101645.38;;;9.34;81.47
75933;BME280;64803;52.356;5.310;2023-03-16T10:43:43;101621.94;;;9.36;79.70
75933;BME280;64803;52.356;5.310;2023-03-16T10:46:10;101625.69;;;9.61;78.60
75933;BME280;64803;52.356;5.310;2023-03-16T10:48:37;101626.59;;;9.69;78.44
75933;BME280;64803;52.356;5.310;2023-03-16T10:51:10;101624.00;;;9.77;77.49
75933;BME280;64803;52.356;5.310;2023-03-16T10:53:38;101630.22;;;9.95;78.28
75933;BME280;64803;52.356;5.310;2023-03-16T10:56:11;101623.91;;;10.04;77.39
75933;BME280;64803;52.356;5.310;2023-03-16T10:58:40;101621.53;;;10.01;75.82
75933;BME280;64803;52.356;5.310;2023-03-16T11:01:14;101610.06;;;9.91;75.25
75933;BME280;64803;52.356;5.310;2023-03-16T11:03:48;101614.88;;;10.05;75.75
75933;BME280;64803;52.356;5.310;2023-03-16T11:06:19;101607.50;;;10.07;75.20
75933;BME280;64803;52.356;5.310;2023-03-16T11:08:47;101601.91;;;10.01;75.20
75933;BME280;64803;52.356;5.310;2023-03-16T11:11:16;101608.28;;;10.17;75.95
75933;BME280;64803;52.356;5.310;2023-03-16T11:13:47;101591.84;;;10.20;73.74
75933;BME280;64803;52.356;5.310;2023-03-16T11:19:02;101605.22;;;10.12;73.16
75933;BME280;64803;52.356;5.310;2023-03-16T11:21:44;101608.28;;;10.17;74.20
75933;BME280;64803;52.356;5.310;2023-03-16T11:24:40;101602.16;;;10.07;72.94
75933;BME280;64803;52.356;5.310;2023-03-16T11:27:23;101596.00;;;9.97;71.26
75933;BME280;64803;52.356;5.310;2023-03-16T11:32:40;101582.28;;;10.00;71.52
75933;BME280;64803;52.356;5.310;2023-03-16T11:35:17;101579.75;;;10.16;73.78
75933;BME280;64803;52.356;5.310;2023-03-16T11:46:26;101586.00;;;10.51;73.76
75933;BME280;64803;52.356;5.310;2023-03-16T11:51:43;101588.34;;;10.46;72.82
75933;BME280;64803;52.356;5.310;2023-03-16T11:54:16;101583.25;;;10.43;72.11
75933;BME280;64803;52.356;5.310;2023-03-16T11:56:52;101574.59;;;10.57;71.35
75933;BME280;64803;52.356;5.310;2023-03-16T12:02:24;101575.03;;;10.78;70.25
75933;BME280;64803;52.356;5.310;2023-03-16T12:12:54;101550.00;;;11.27;68.38
75933;BME280;64803;52.356;5.310;2023-03-16T12:15:38;101556.75;;;11.39;67.92
75933;BME280;64803;52.356;5.310;2023-03-16T12:18:12;101546.84;;;11.64;69.28
75933;BME280;64803;52.356;5.310;2023-03-16T12:20:46;101553.25;;;11.95;67.67
75933;BME280;64803;52.356;5.310;2023-03-16T12:23:19;101542.66;;;12.01;65.40
75933;BME280;64803;52.356;5.310;2023-03-16T12:25:49;101553.44;;;11.93;64.84
75933;BME280;64803;52.356;5.310;2023-03-16T12:28:20;101546.22;;;11.78;64.81
75933;BME280;64803;52.356;5.310;2023-03-16T12:41:55;101532.91;;;12.00;66.43
75933;BME280;64803;52.356;5.310;2023-03-16T12:44:45;101522.13;;;12.00;63.58
75933;BME280;64803;52.356;5.310;2023-03-16T12:49:40;101514.72;;;12.18;64.64
75933;BME280;64803;52.356;5.310;2023-03-16T12:52:08;101505.25;;;12.30;61.94
75933;BME280;64803;52.356;5.310;2023-03-16T12:54:35;101494.06;;;12.41;61.58
75933;BME280;64803;52.356;5.310;2023-03-16T12:57:07;101489.25;;;12.68;62.88
75933;BME280;64803;52.356;5.310;2023-03-16T12:59:42;101484.63;;;12.84;62.63
75933;BME280;64803;52.356;5.310;2023-03-16T13:04:40;101461.25;;;13.07;60.17
75933;BME280;64803;52.356;5.310;2023-03-16T13:07:23;101446.19;;;13.13;60.75
75933;BME280;64803;52.356;5.310;2023-03-16T13:09:55;101436.50;;;13.26;60.65
75933;BME280;64803;52.356;5.310;2023-03-16T13:12:29;101444.81;;;13.17;57.65
75933;BME280;64803;52.356;5.310;2023-03-16T13:14:57;101434.91;;;13.32;55.06
75933;BME280;64803;52.356;5.310;2023-03-16T13:17:30;101428.94;;;13.22;54.79
75933;BME280;64803;52.356;5.310;2023-03-16T13:22:50;101431.06;;;13.49;57.80
75933;BME280;64803;52.356;5.310;2023-03-16T13:25:17;101432.53;;;13.37;55.51
75933;BME280;64803;52.356;5.310;2023-03-16T13:27:50;101435.53;;;13.42;56.31
75933;BME280;64803;52.356;5.310;2023-03-16T13:32:44;101434.09;;;13.31;55.53
75933;BME280;64803;52.356;5.310;2023-03-16T13:35:12;101443.16;;;13.16;56.01
75933;BME280;64803;52.356;5.310;2023-03-16T13:37:41;101438.53;;;13.02;54.18
75933;BME280;64803;52.356;5.310;2023-03-16T13:40:25;101436.81;;;13.01;54.41
75933;BME280;64803;52.356;5.310;2023-03-16T13:42:52;101439.72;;;13.22;54.88
75933;BME280;64803;52.356;5.310;2023-03-16T13:45:22;101431.44;;;13.23;54.80
75933;BME280;64803;52.356;5.310;2023-03-16T13:47:52;101426.06;;;13.23;54.98
75933;BME280;64803;52.356;5.310;2023-03-16T13:50:19;101435.53;;;13.42;54.97
75933;BME280;64803;52.356;5.310;2023-03-16T13:52:56;101420.28;;;13.49;54.65
75933;BME280;64803;52.356;5.310;2023-03-16T13:55:32;101425.44;;;13.36;51.97
75933;BME280;64803;52.356;5.310;2023-03-16T13:57:59;101430.72;;;13.52;54.37
75933;BME280;64803;52.356;5.310;2023-03-16T14:00:29;101418.59;;;13.48;51.71
75933;BME280;64803;52.356;5.310;2023-03-16T14:02:59;101416.66;;;13.56;52.71
75933;BME280;64803;52.356;5.310;2023-03-16T14:05:32;101423.31;;;13.83;52.81
75933;BME280;64803;52.356;5.310;2023-03-16T14:08:00;101421.44;;;13.98;51.74
75933;BME280;64803;52.356;5.310;2023-03-16T14:10:34;101424.78;;;14.00;53.91
75933;BME280;64803;52.356;5.310;2023-03-16T14:13:09;101408.25;;;14.03;52.01
75933;BME280;64803;52.356;5.310;2023-03-16T14:15:47;101408.88;;;14.05;51.87